Terminal Aerodrome Forecast
Issued by NWS

Home | Current Version | Previous Version | Text Only | Print | Product List | Glossary On
Versions: 1 2 3 4 5 6 7 8 9 10 11 12 13 14 15 16 17 18 19 20 21 22 23 24 25
031
FTUS44 KFWD 290528
TAFGKY
TAF
KGKY 290528Z 2906/3006 13010KT P6SM VCTS BKN050CB
     FM290900 15010KT 6SM BR OVC008
     FM291600 17016KT P6SM SCT015 BKN040
     FM292000 16017KT P6SM VCTS SCT025 BKN050CB
     FM300100 16016KT P6SM BKN050=

USA.gov is the U.S. government's official web portal to all federal, state and local government web resources and services.